Time;durP1;ratioP1;P1;durP2;ratioP2;P2;SDS_P1;SDS_P2;PMS_P1;PMS_P2;Temp;Humidity;BMP_temperature;BMP_pressure;BME280_temperature;BME280_humidity;BME280_pressure;Samples;Min_cycle;Max_cycle;Signal;HPM_P1;HPM_P2
2021/08/18 00:01:16;;;;;;;;;5.75;4.75;;;;;19.03;68.47;101781.31;5013744;28;47193;-72
2021/08/18 00:03:42;;;;;;;;;6.75;6.25;;;;;19.03;68.27;101776.00;5015232;28;45441;-72
2021/08/18 00:06:07;;;;;;;;;3.00;3.00;;;;;19.03;68.26;101771.53;5014130;28;45517;-71
2021/08/18 00:08:32;;;;;;;;;4.00;4.00;;;;;19.08;68.63;101779.22;5013405;28;51216;-71
2021/08/18 00:10:58;;;;;;;;;6.00;5.00;;;;;19.08;68.32;101773.91;5014095;28;57961;-71
2021/08/18 00:13:24;;;;;;;;;5.75;4.00;;;;;19.06;68.52;101758.97;5014157;28;45526;-71
2021/08/18 00:15:51;;;;;;;;;4.75;4.50;;;;;19.06;68.57;101772.31;5014704;28;45591;-71
2021/08/18 00:18:17;;;;;;;;;4.25;4.25;;;;;19.06;68.61;101766.97;5012999;28;46213;-71
2021/08/18 00:20:43;;;;;;;;;8.25;4.00;;;;;19.05;67.91;101760.75;5009400;28;45327;-72
2021/08/18 00:23:08;;;;;;;;;7.25;4.00;;;;;19.04;68.30;101759.91;5013128;28;45470;-71
2021/08/18 00:25:34;;;;;;;;;5.25;3.75;;;;;19.03;68.98;101749.34;5013005;28;45485;-71
2021/08/18 00:27:59;;;;;;;;;4.50;4.00;;;;;19.06;68.32;101756.31;5007144;28;47318;-72
2021/08/18 00:30:26;;;;;;;;;4.75;4.75;;;;;19.07;68.54;101760.69;5011595;28;45677;-71
2021/08/18 00:32:52;;;;;;;;;6.50;4.00;;;;;19.07;68.58;101758.03;5009347;28;45496;-71
2021/08/18 00:35:18;;;;;;;;;4.25;2.50;;;;;19.08;68.71;101754.41;5007685;28;45598;-72
2021/08/18 00:37:43;;;;;;;;;6.00;4.25;;;;;19.08;68.92;101754.41;5008814;28;45562;-72
2021/08/18 00:40:10;;;;;;;;;8.00;5.25;;;;;19.08;68.65;101751.75;5007081;28;45702;-71
2021/08/18 00:42:36;;;;;;;;;4.00;4.00;;;;;19.08;68.18;101754.41;5011379;28;45491;-72
2021/08/18 00:45:02;;;;;;;;;7.00;6.00;;;;;19.02;68.39;101752.97;5009754;28;45460;-71
2021/08/18 00:47:27;;;;;;;;;4.25;3.50;;;;;19.01;68.40;101752.13;5008983;28;45635;-71
2021/08/18 00:49:52;;;;;;;;;5.25;5.25;;;;;18.98;68.60;101748.78;5012306;28;47683;-72
2021/08/18 00:52:17;;;;;;;;;4.25;4.25;;;;;18.94;68.70;101750.78;5012992;28;49122;-72
2021/08/18 00:54:43;;;;;;;;;5.75;5.50;;;;;18.90;68.72;101740.44;5014470;28;45197;-71
2021/08/18 00:57:08;;;;;;;;;5.00;5.00;;;;;18.89;68.84;101749.34;5011382;28;45434;-71
2021/08/18 00:59:34;;;;;;;;;7.00;6.00;;;;;18.87;68.94;101746.78;5011362;28;45528;-71
2021/08/18 01:02:00;;;;;;;;;6.25;4.00;;;;;18.88;69.06;101751.16;5013453;28;45364;-71
2021/08/18 01:04:26;;;;;;;;;5.50;3.25;;;;;18.86;69.28;101755.72;5016004;28;45425;-71
2021/08/18 01:06:51;;;;;;;;;5.00;4.00;;;;;18.87;69.18;101743.28;5013487;28;45673;-71
2021/08/18 01:09:18;;;;;;;;;3.25;3.25;;;;;18.90;69.02;101751.09;5017166;28;45454;-71
2021/08/18 01:11:46;;;;;;;;;4.50;2.75;;;;;18.91;69.34;101744.81;5012603;28;45490;-72
2021/08/18 01:14:12;;;;;;;;;7.75;3.75;;;;;18.92;69.14;101752.69;5016599;28;45339;-71
2021/08/18 01:16:40;;;;;;;;;7.50;5.00;;;;;18.89;68.70;101747.53;5016442;28;45864;-71
2021/08/18 01:19:07;;;;;;;;;7.00;4.75;;;;;18.87;69.15;101751.25;5015515;28;45771;-72
2021/08/18 01:21:38;;;;;;;;;5.50;5.50;;;;;18.84;69.26;101744.31;5013137;28;45480;-71
2021/08/18 01:24:04;;;;;;;;;6.00;4.50;;;;;18.84;69.54;101743.44;5013977;28;48092;-71
2021/08/18 01:26:31;;;;;;;;;3.00;3.00;;;;;18.82;69.38;101740.88;5011992;28;45496;-71
2021/08/18 01:28:57;;;;;;;;;5.25;5.25;;;;;18.83;69.02;101747.06;5013932;28;45521;-71
2021/08/18 01:31:23;;;;;;;;;3.75;3.75;;;;;18.80;69.43;101742.81;5015018;28;45455;-72
2021/08/18 01:33:48;;;;;;;;;6.50;5.50;;;;;18.81;69.31;101739.19;5015971;28;49953;-71
2021/08/18 01:36:14;;;;;;;;;6.00;3.50;;;;;18.84;69.69;101738.13;5014328;28;45511;-71
2021/08/18 01:38:39;;;;;;;;;8.00;5.00;;;;;18.84;69.42;101741.63;5013773;28;45415;-71
2021/08/18 01:41:04;;;;;;;;;6.25;4.00;;;;;18.84;69.81;101740.78;5011729;28;50734;-71
2021/08/18 01:43:30;;;;;;;;;4.25;4.25;;;;;18.78;69.47;101731.38;5008660;28;45445;-71
2021/08/18 01:45:56;;;;;;;;;7.00;5.75;;;;;18.83;69.65;101739.94;5012293;28;46426;-71
2021/08/18 01:48:24;;;;;;;;;3.00;3.00;;;;;18.80;69.57;101741.94;5007594;28;45316;-71
2021/08/18 01:50:55;;;;;;;;;4.50;4.00;;;;;18.77;70.23;101730.50;5010905;28;45682;-71
2021/08/18 01:53:23;;;;;;;;;5.50;4.00;;;;;18.73;70.00;101734.31;5012371;28;45454;-71
2021/08/18 01:55:49;;;;;;;;;4.75;4.50;;;;;18.70;69.96;101726.53;5009498;28;46471;-71
2021/08/18 01:58:14;;;;;;;;;5.00;4.00;;;;;18.69;70.40;101729.28;5009912;28;45442;-71
2021/08/18 02:00:40;;;;;;;;;4.75;4.75;;;;;18.72;70.06;101727.28;5010970;28;45343;-71
2021/08/18 02:03:05;;;;;;;;;7.75;5.00;;;;;18.72;70.19;101727.28;5014653;28;45566;-71
2021/08/18 02:05:31;;;;;;;;;5.50;4.25;;;;;18.71;70.17;101722.91;5011721;28;45450;-71
2021/08/18 02:07:56;;;;;;;;;4.50;4.25;;;;;18.69;70.06;101721.31;5012203;28;45317;-71
2021/08/18 02:10:22;;;;;;;;;5.00;5.00;;;;;18.73;69.81;101726.31;5014267;28;45547;-71
2021/08/18 02:12:48;;;;;;;;;5.25;5.00;;;;;18.71;69.56;101725.56;5017472;28;45296;-71
2021/08/18 02:15:33;;;;;;;;;5.00;5.00;;;;;18.70;69.65;101720.34;5015981;28;47353;-71
2021/08/18 02:18:01;;;;;;;;;6.00;4.00;;;;;18.68;70.16;101719.56;5010443;28;45468;-71
2021/08/18 02:20:30;;;;;;;;;5.25;4.00;;;;;18.65;69.58;101725.06;5015658;28;45659;-71
2021/08/18 02:22:56;;;;;;;;;4.00;3.25;;;;;18.61;69.61;101729.72;5013574;28;45438;-71
2021/08/18 02:25:22;;;;;;;;;6.25;5.00;;;;;18.60;70.38;101721.81;5014026;28;46015;-71
2021/08/18 02:27:48;;;;;;;;;5.00;3.25;;;;;18.59;70.17;101720.97;5016775;28;45457;-71
2021/08/18 02:30:18;;;;;;;;;4.00;4.00;;;;;18.55;70.41;101716.78;5015473;28;45406;-71
2021/08/18 02:32:43;;;;;;;;;6.25;5.75;;;;;18.51;70.94;101716.09;5013210;28;45613;-71
2021/08/18 02:35:10;;;;;;;;;6.25;4.50;;;;;18.47;71.51;101719.03;5015309;28;45486;-71
2021/08/18 02:37:35;;;;;;;;;5.50;3.50;;;;;18.47;71.86;101719.03;5015908;28;45324;-71
2021/08/18 02:40:02;;;;;;;;;5.75;3.50;;;;;18.49;71.64;101714.50;5014312;28;45517;-72
2021/08/18 02:42:27;;;;;;;;;3.00;3.00;;;;;18.49;72.16;101722.47;5015275;28;45565;-72
2021/08/18 02:44:52;;;;;;;;;3.25;3.25;;;;;18.39;71.91;101695.56;5013324;28;46498;-71
2021/08/18 02:47:18;;;;;;;;;4.00;4.00;;;;;18.47;71.84;101709.25;5010400;28;51457;-71
2021/08/18 02:49:43;;;;;;;;;3.75;3.75;;;;;18.50;71.97;101708.22;5014727;28;45451;-71
2021/08/18 02:52:09;;;;;;;;;6.50;5.00;;;;;18.49;71.56;101710.03;5014970;28;53511;-72
2021/08/18 02:54:35;;;;;;;;;4.25;4.00;;;;;18.49;71.19;101699.38;5014893;28;46226;-71
2021/08/18 02:57:00;;;;;;;;;3.50;2.75;;;;;18.50;71.49;101709.06;5011672;28;45529;-71
2021/08/18 02:59:26;;;;;;;;;5.00;3.00;;;;;18.50;71.36;101709.06;5014919;28;45524;-71
2021/08/18 03:01:52;;;;;;;;;4.25;3.00;;;;;18.50;71.08;101702.88;5013584;28;45356;-72
2021/08/18 03:04:17;;;;;;;;;5.75;4.00;;;;;18.48;70.98;101696.81;5014607;28;45597;-72
2021/08/18 03:06:42;;;;;;;;;4.75;4.00;;;;;18.47;71.07;101705.72;5015894;28;45360;-71
2021/08/18 03:09:07;;;;;;;;;7.00;4.00;;;;;18.44;71.53;101689.97;5015655;28;45558;-71
2021/08/18 03:11:33;;;;;;;;;5.00;3.00;;;;;18.45;71.30;101704.97;5010777;28;45351;-71
2021/08/18 03:13:58;;;;;;;;;4.00;3.00;;;;;18.47;71.07;101703.06;5011803;28;46658;-71
2021/08/18 03:16:24;;;;;;;;;4.00;3.50;;;;;18.46;71.73;101706.69;5012783;28;45482;-72
2021/08/18 03:18:49;;;;;;;;;7.00;5.00;;;;;18.44;71.47;101703.25;5011331;28;46590;-71
2021/08/18 03:21:14;;;;;;;;;3.75;3.00;;;;;18.41;71.65;101701.63;5013010;28;45850;-71
2021/08/18 03:23:40;;;;;;;;;5.50;3.75;;;;;18.43;71.97;101709.53;5010567;28;46505;-71
2021/08/18 03:26:05;;;;;;;;;4.00;3.00;;;;;18.41;72.25;101703.44;5011149;28;45477;-71
2021/08/18 03:28:30;;;;;;;;;4.50;3.50;;;;;18.42;71.91;101695.34;5015286;28;45713;-71
2021/08/18 03:30:56;;;;;;;;;3.50;3.25;;;;;18.40;72.08;101697.25;5011110;28;45411;-71
2021/08/18 03:33:21;;;;;;;;;4.25;3.50;;;;;18.42;72.22;101703.34;5014431;28;46337;-71
2021/08/18 03:35:46;;;;;;;;;5.50;4.00;;;;;18.41;71.51;101698.13;5008470;28;45401;-72
2021/08/18 03:38:12;;;;;;;;;5.25;5.00;;;;;18.40;72.34;101694.59;5014556;28;45498;-71
2021/08/18 03:40:38;;;;;;;;;4.00;4.00;;;;;18.39;72.24;101694.69;5014792;28;45399;-71
2021/08/18 03:43:03;;;;;;;;;3.50;3.00;;;;;18.40;71.84;101688.44;5011471;28;45385;-71
2021/08/18 03:45:28;;;;;;;;;7.50;5.75;;;;;18.40;72.12;101697.25;5012682;28;45355;-71
2021/08/18 03:47:54;;;;;;;;;3.00;2.50;;;;;18.43;71.45;101693.56;5014736;28;45687;-72
2021/08/18 03:50:19;;;;;;;;;5.00;4.75;;;;;18.42;71.50;101695.34;5012284;28;45533;-71
2021/08/18 03:52:45;;;;;;;;;4.00;2.25;;;;;18.42;71.79;101695.34;5014244;28;46641;-71
2021/08/18 03:55:12;;;;;;;;;8.75;7.00;;;;;18.44;71.79;101697.94;5015152;28;45454;-71
2021/08/18 03:57:38;;;;;;;;;6.75;4.00;;;;;18.45;71.83;101700.50;5011080;28;45514;-71
2021/08/18 04:00:05;;;;;;;;;5.00;3.75;;;;;18.49;71.81;101690.53;5011858;28;45343;-71
2021/08/18 04:02:30;;;;;;;;;5.25;3.00;;;;;18.50;71.47;101694.91;5009985;28;45460;-71
2021/08/18 04:04:55;;;;;;;;;5.25;5.25;;;;;18.49;71.55;101702.03;5011223;28;45952;-71
2021/08/18 04:07:21;;;;;;;;;6.25;5.00;;;;;18.49;71.55;101693.19;5011455;28;45540;-72
2021/08/18 04:09:46;;;;;;;;;4.25;4.25;;;;;18.52;71.45;101693.00;5014247;28;45428;-71
2021/08/18 04:12:11;;;;;;;;;5.00;4.00;;;;;18.52;71.38;101693.84;5010454;28;47151;-71
2021/08/18 04:14:37;;;;;;;;;5.50;5.00;;;;;18.52;71.58;101691.19;5011100;28;45534;-71
2021/08/18 04:17:02;;;;;;;;;4.75;4.75;;;;;18.51;71.39;101694.81;5010989;28;45569;-71
2021/08/18 04:19:27;;;;;;;;;5.75;5.75;;;;;18.51;71.32;101689.47;5013400;28;45396;-72
2021/08/18 04:21:53;;;;;;;;;6.50;6.50;;;;;18.52;70.87;101687.66;5010286;28;50820;-71
2021/08/18 04:24:18;;;;;;;;;5.25;5.00;;;;;18.51;71.12;101699.28;5011844;28;45323;-71
2021/08/18 04:26:43;;;;;;;;;5.00;4.00;;;;;18.48;71.15;101699.47;5014333;28;45365;-71
2021/08/18 04:29:09;;;;;;;;;5.50;4.75;;;;;18.49;71.49;101693.19;5010365;28;45439;-71
2021/08/18 04:31:34;;;;;;;;;6.00;5.50;;;;;18.50;71.63;101703.75;5013484;28;45459;-71
2021/08/18 04:34:00;;;;;;;;;6.50;4.75;;;;;18.48;71.40;101694.16;5014379;28;45631;-71
2021/08/18 04:36:25;;;;;;;;;5.75;4.25;;;;;18.43;71.47;101694.44;5010691;28;45440;-71
2021/08/18 04:38:50;;;;;;;;;6.00;5.25;;;;;18.44;72.00;101695.28;5013335;28;47668;-71
2021/08/18 04:41:16;;;;;;;;;6.75;5.75;;;;;18.44;71.40;101693.47;5009437;28;46448;-71
2021/08/18 04:43:41;;;;;;;;;7.25;6.00;;;;;18.43;71.87;101691.78;5012909;28;45690;-72
2021/08/18 04:46:06;;;;;;;;;6.25;5.50;;;;;18.44;71.73;101689.97;5014161;28;45456;-71
2021/08/18 04:48:32;;;;;;;;;4.00;4.00;;;;;18.43;71.79;101693.56;5014595;28;45497;-71
2021/08/18 04:50:57;;;;;;;;;8.00;5.50;;;;;18.44;72.33;101697.94;5011303;28;45523;-72
2021/08/18 04:53:23;;;;;;;;;6.50;6.00;;;;;18.34;71.61;101680.81;5011848;28;45424;-72
2021/08/18 04:55:49;;;;;;;;;7.75;5.00;;;;;18.41;71.86;101698.97;5011542;28;45529;-72
2021/08/18 04:58:14;;;;;;;;;6.00;5.25;;;;;18.42;72.10;101700.69;5011174;28;45490;-71
2021/08/18 05:00:39;;;;;;;;;6.50;5.00;;;;;18.45;71.68;101700.50;5009441;28;46332;-71
2021/08/18 05:03:05;;;;;;;;;9.00;7.50;;;;;18.47;71.86;101698.59;5013606;28;45391;-71
2021/08/18 05:05:30;;;;;;;;;7.50;5.00;;;;;18.50;71.76;101694.91;5013966;28;45422;-71
2021/08/18 05:07:58;;;;;;;;;8.75;6.75;;;;;18.49;71.56;101694.06;5012741;28;45489;-71
2021/08/18 05:10:24;;;;;;;;;8.50;6.50;;;;;18.51;71.67;101697.47;5013103;28;46553;-71
2021/08/18 05:12:49;;;;;;;;;6.25;5.00;;;;;18.51;72.05;101694.81;5009186;28;45466;-71
2021/08/18 05:15:14;;;;;;;;;7.75;5.25;;;;;18.50;71.90;101692.25;5008817;28;50088;-71
2021/08/18 05:17:40;;;;;;;;;8.25;5.75;;;;;18.52;71.67;101696.50;5008936;28;45389;-71
2021/08/18 05:20:06;;;;;;;;;6.00;5.50;;;;;18.54;71.96;101701.75;5013046;28;45549;-72
2021/08/18 05:22:32;;;;;;;;;8.25;7.00;;;;;18.53;71.47;101692.03;4997628;28;45368;-72
2021/08/18 05:24:57;;;;;;;;;6.50;6.50;;;;;18.51;71.51;101692.13;5013660;28;45642;-71
2021/08/18 05:27:22;;;;;;;;;6.50;6.00;;;;;18.53;71.46;101692.03;5008731;28;45460;-71
2021/08/18 05:29:48;;;;;;;;;8.00;5.00;;;;;18.63;71.58;101700.31;5009726;28;59636;-71
2021/08/18 05:32:13;;;;;;;;;4.75;4.75;;;;;18.65;71.65;101701.09;5007586;28;49039;-72
2021/08/18 05:34:38;;;;;;;;;6.75;5.00;;;;;18.63;71.76;101703.84;5013260;28;45608;-71
2021/08/18 05:37:04;;;;;;;;;9.50;7.00;;;;;18.63;71.84;101705.66;5009989;28;45403;-71
2021/08/18 05:39:29;;;;;;;;;9.50;6.00;;;;;18.61;71.72;101699.56;5011289;28;46088;-71
2021/08/18 05:41:55;;;;;;;;;5.00;5.00;;;;;18.65;71.72;101706.44;5008721;28;45296;-71
2021/08/18 05:44:20;;;;;;;;;6.75;6.00;;;;;18.65;71.61;101699.28;5013641;28;45527;-71
2021/08/18 05:46:46;;;;;;;;;5.00;5.00;;;;;18.71;71.33;101711.41;5016064;28;45678;-71
2021/08/18 05:49:18;;;;;;;;;7.00;7.00;;;;;18.71;71.83;101703.41;5015756;28;46299;-72
2021/08/18 05:51:43;;;;;;;;;5.25;5.25;;;;;18.73;71.52;101715.66;5014305;28;45816;-71
2021/08/18 05:54:09;;;;;;;;;5.25;5.25;;;;;18.72;72.08;101711.28;5016130;28;45386;-72
2021/08/18 05:56:34;;;;;;;;;6.50;6.50;;;;;18.74;72.09;101709.41;5015685;28;45501;-71
2021/08/18 05:58:59;;;;;;;;;4.75;4.75;;;;;18.78;71.28;101724.22;5013851;28;56516;-71
2021/08/18 06:01:25;;;;;;;;;7.00;7.00;;;;;18.80;72.11;101708.19;5014718;28;65137;-71
2021/08/18 06:03:51;;;;;;;;;9.50;5.75;;;;;18.82;72.09;101716.06;5012531;28;49585;-71
2021/08/18 06:06:16;;;;;;;;;7.25;6.25;;;;;18.84;72.13;101709.69;5011800;28;45491;-71
2021/08/18 06:08:42;;;;;;;;;7.50;6.00;;;;;18.86;71.60;101710.44;5014333;28;46331;-72
2021/08/18 06:11:07;;;;;;;;;7.00;6.00;;;;;18.88;71.78;101716.53;5011263;28;46682;-72
2021/08/18 06:13:32;;;;;;;;;4.00;4.00;;;;;18.91;71.64;101713.69;5016590;28;45812;-72
2021/08/18 06:15:58;;;;;;;;;6.25;5.50;;;;;18.95;71.69;101717.00;5010434;28;45687;-71
2021/08/18 06:18:23;;;;;;;;;5.25;5.25;;;;;18.98;71.80;101715.00;5013711;28;59773;-71
2021/08/18 06:20:48;;;;;;;;;3.75;3.75;;;;;19.03;71.19;101720.91;5011159;28;45506;-70
2021/08/18 06:23:19;;;;;;;;;6.75;5.50;;;;;19.07;71.66;101721.56;5014684;28;45556;-70
2021/08/18 06:25:45;;;;;;;;;5.25;5.25;;;;;19.07;71.67;101718.06;5007915;28;45907;-70
2021/08/18 06:28:10;;;;;;;;;6.75;6.00;;;;;19.11;71.15;101724.91;5012417;28;60685;-70
2021/08/18 06:30:35;;;;;;;;;7.00;5.00;;;;;19.09;71.55;101719.66;5012262;28;45643;-70
2021/08/18 06:33:01;;;;;;;;;7.00;6.00;;;;;19.09;71.06;101729.47;5011562;28;45562;-70
2021/08/18 06:35:26;;;;;;;;;8.00;6.50;;;;;19.08;71.57;101727.75;5010738;28;54416;-69
2021/08/18 06:37:51;;;;;;;;;7.75;5.25;;;;;19.11;71.02;101720.44;5011819;28;45395;-72
2021/08/18 06:40:17;;;;;;;;;6.25;6.25;;;;;19.10;70.91;101721.38;5013440;28;49362;-71
2021/08/18 06:42:44;;;;;;;;;6.00;6.00;;;;;19.11;70.92;101724.91;5013289;28;45504;-70
2021/08/18 06:45:11;;;;;;;;;7.00;5.25;;;;;19.17;71.17;101736.03;5015103;28;45437;-70
2021/08/18 06:47:38;;;;;;;;;6.50;5.25;;;;;19.20;70.80;101724.31;5012808;28;45506;-70
2021/08/18 06:50:04;;;;;;;;;5.25;4.75;;;;;19.21;71.09;101716.25;5011213;28;45732;-70
2021/08/18 06:52:30;;;;;;;;;4.00;4.00;;;;;19.26;70.82;101718.59;5014178;28;45344;-70
2021/08/18 06:54:56;;;;;;;;;4.25;4.25;;;;;19.33;70.61;101730.59;5011379;28;45367;-70
2021/08/18 06:57:21;;;;;;;;;4.50;4.50;;;;;19.34;70.63;101724.28;5011367;28;47226;-70
2021/08/18 06:59:47;;;;;;;;;7.00;7.00;;;;;19.41;70.43;101732.75;5014151;28;45381;-70
2021/08/18 07:02:12;;;;;;;;;7.00;5.75;;;;;19.43;70.22;101741.53;5013631;28;47054;-70
2021/08/18 07:04:37;;;;;;;;;6.00;5.00;;;;;19.43;70.45;101736.19;5014087;28;51202;-70
2021/08/18 07:07:03;;;;;;;;;9.00;6.00;;;;;19.44;70.39;101728.09;5014502;28;45492;-71
2021/08/18 07:09:28;;;;;;;;;5.50;4.00;;;;;19.44;70.38;101729.91;5014967;28;45528;-71
2021/08/18 07:11:53;;;;;;;;;6.00;5.00;;;;;19.47;70.09;101737.69;5012335;28;45512;-72
2021/08/18 07:14:19;;;;;;;;;7.00;7.00;;;;;19.47;70.29;101733.22;5013726;28;45663;-71
2021/08/18 07:16:44;;;;;;;;;6.75;5.75;;;;;19.49;70.06;101730.44;5013212;28;46560;-71
2021/08/18 07:19:09;;;;;;;;;7.75;6.75;;;;;19.51;70.60;101729.38;5014135;28;45410;-71
2021/08/18 07:21:35;;;;;;;;;11.00;7.00;;;;;19.59;70.14;101728.94;5014033;28;45740;-71
2021/08/18 07:24:00;;;;;;;;;9.50;7.50;;;;;19.66;69.89;101730.22;5013857;28;48292;-71
2021/08/18 07:26:26;;;;;;;;;6.00;6.00;;;;;19.75;69.85;101731.44;5013048;28;57249;-71
2021/08/18 07:28:52;;;;;;;;;9.25;8.75;;;;;19.88;69.72;101719.00;5014482;28;45490;-71
2021/08/18 07:31:17;;;;;;;;;5.50;4.75;;;;;20.08;69.68;101723.88;5014229;28;45465;-71
2021/08/18 07:33:43;;;;;;;;;5.00;3.75;;;;;20.28;68.96;101727.00;4981820;28;45765;-72
2021/08/18 07:36:08;;;;;;;;;8.75;6.00;;;;;20.42;69.11;101724.25;4991956;28;45398;-71
2021/08/18 07:38:34;;;;;;;;;6.00;6.00;;;;;20.54;68.19;101718.09;4991267;28;45391;-72
2021/08/18 07:40:59;;;;;;;;;8.50;6.00;;;;;20.65;68.10;101721.84;4991930;28;46626;-71
2021/08/18 07:43:24;;;;;;;;;5.75;5.75;;;;;20.74;67.62;101724.72;4993314;28;45427;-70
2021/08/18 07:45:50;;;;;;;;;49.00;36.25;;;;;20.85;67.46;101726.63;4993931;28;53080;-70
2021/08/18 07:48:15;;;;;;;;;35.75;29.50;;;;;20.93;67.70;101724.25;4992643;28;45600;-70
2021/08/18 07:50:41;;;;;;;;;9.25;6.25;;;;;20.96;67.65;101718.72;4991881;28;45719;-70
2021/08/18 07:53:06;;;;;;;;;6.50;4.50;;;;;21.01;67.53;101719.25;4993105;28;45512;-70
2021/08/18 07:55:31;;;;;;;;;5.50;4.75;;;;;21.13;67.42;101724.66;4991815;28;45431;-71
2021/08/18 07:57:56;;;;;;;;;4.25;3.25;;;;;21.22;66.36;101716.84;4993375;28;45482;-71
2021/08/18 08:00:22;;;;;;;;;6.25;4.00;;;;;21.34;66.40;101713.31;4991410;28;45501;-71
2021/08/18 08:02:47;;;;;;;;;4.00;4.00;;;;;21.48;66.33;101717.66;4992336;28;45573;-71
2021/08/18 08:05:15;;;;;;;;;3.25;3.25;;;;;21.62;66.27;101724.69;4991721;28;48146;-70
2021/08/18 08:07:40;;;;;;;;;5.50;5.25;;;;;21.77;65.71;101725.34;4990846;28;45489;-70
2021/08/18 08:10:07;;;;;;;;;5.50;4.25;;;;;21.93;65.56;101720.56;4993901;28;45551;-71
2021/08/18 08:12:33;;;;;;;;;4.50;3.50;;;;;22.11;64.68;101713.84;4993312;28;45628;-71
2021/08/18 08:14:59;;;;;;;;;4.75;4.75;;;;;22.26;64.55;101703.78;4992490;28;46152;-71
2021/08/18 08:17:24;;;;;;;;;4.00;3.50;;;;;22.46;64.23;101710.28;4992349;28;45522;-71
2021/08/18 08:19:50;;;;;;;;;4.00;4.00;;;;;22.59;64.11;101715.53;4991424;28;46094;-72
2021/08/18 08:22:15;;;;;;;;;6.00;5.00;;;;;22.63;63.41;101715.19;4992631;28;45451;-70
2021/08/18 08:24:41;;;;;;;;;6.00;4.00;;;;;22.69;63.23;101718.34;4993069;28;46054;-71
2021/08/18 08:27:06;;;;;;;;;6.00;4.75;;;;;22.72;63.53;101726.16;4994416;28;47135;-71
2021/08/18 08:29:31;;;;;;;;;6.25;4.25;;;;;22.73;63.55;101726.03;4985975;28;45415;-71
2021/08/18 08:31:57;;;;;;;;;4.75;4.50;;;;;22.72;63.32;101718.97;4996414;28;45993;-71
2021/08/18 08:34:22;;;;;;;;;4.00;4.00;;;;;22.67;63.34;101721.16;4999368;28;45696;-71
2021/08/18 08:36:48;;;;;;;;;8.50;5.00;;;;;22.61;63.41;101725.19;4994946;28;45419;-71
2021/08/18 08:39:14;;;;;;;;;4.00;4.00;;;;;22.59;62.92;101720.88;4994552;28;45530;-72
2021/08/18 08:41:41;;;;;;;;;5.00;5.00;;;;;22.57;62.98;101723.69;4995156;28;45727;-71
2021/08/18 08:44:07;;;;;;;;;6.00;5.00;;;;;22.53;63.10;101719.53;5001640;28;45889;-71
2021/08/18 08:46:33;;;;;;;;;5.50;4.00;;;;;22.47;63.30;101725.38;4992175;28;45784;-71
2021/08/18 08:48:58;;;;;;;;;5.50;3.50;;;;;22.48;62.76;101728.91;4993456;28;45309;-71
2021/08/18 08:51:24;;;;;;;;;4.00;4.00;;;;;22.52;63.72;101727.72;4990921;28;45480;-72
2021/08/18 08:53:49;;;;;;;;;5.00;5.00;;;;;22.56;62.47;101732.72;4991977;28;46692;-71
2021/08/18 08:56:14;;;;;;;;;4.50;3.25;;;;;22.45;62.82;101732.69;4991976;28;45288;-72
2021/08/18 08:58:40;;;;;;;;;3.00;3.00;;;;;22.27;63.11;101734.09;4991988;28;45825;-72
2021/08/18 09:01:05;;;;;;;;;4.00;4.00;;;;;22.14;63.00;101731.50;4993024;28;46268;-71
2021/08/18 09:03:35;;;;;;;;;5.75;5.00;;;;;22.05;62.93;101737.53;4992361;28;49978;-70
2021/08/18 09:06:06;;;;;;;;;4.25;4.25;;;;;21.96;63.69;101732.84;4988909;28;45805;-71
2021/08/18 09:08:32;;;;;;;;;5.00;5.00;;;;;21.91;63.80;101725.16;4985178;28;45590;-69
2021/08/18 09:11:15;;;;;;;;;4.50;4.25;;;;;21.88;64.06;101733.44;4987603;28;45571;-69
2021/08/18 09:13:48;;;;;;;;;6.00;6.00;;;;;21.81;63.82;101727.66;4988472;28;46487;-69
2021/08/18 09:16:16;;;;;;;;;6.00;5.25;;;;;21.76;63.42;101729.00;4989583;28;45813;-69
2021/08/18 09:18:53;;;;;;;;;5.00;5.00;;;;;21.69;63.90;101731.28;4990133;28;45574;-69
2021/08/18 09:21:30;;;;;;;;;4.75;4.75;;;;;21.71;64.31;101734.69;4991572;28;45705;-70
2021/08/18 09:24:27;;;;;;;;;3.75;3.75;;;;;21.74;63.82;101729.09;4990421;28;46365;-69
2021/08/18 09:27:08;;;;;;;;;6.00;5.50;;;;;21.75;64.54;101730.81;4991228;28;45685;-69
2021/08/18 09:29:42;;;;;;;;;4.25;2.00;;;;;21.80;64.31;101735.81;4990599;28;45664;-68
2021/08/18 09:32:20;;;;;;;;;5.50;4.00;;;;;21.76;63.93;101734.34;4996746;28;45953;-69
2021/08/18 09:35:06;;;;;;;;;5.75;5.25;;;;;21.73;63.42;101731.91;4992243;28;47789;-69
2021/08/18 09:37:31;;;;;;;;;5.25;4.50;;;;;21.75;63.88;101721.94;4991471;28;45395;-70
2021/08/18 09:39:58;;;;;;;;;4.00;4.00;;;;;21.82;63.85;101725.84;4992865;28;45737;-69
2021/08/18 09:42:29;;;;;;;;;5.75;5.75;;;;;21.93;63.80;101717.03;4990496;28;45504;-68
2021/08/18 09:45:16;;;;;;;;;3.75;3.75;;;;;22.08;63.72;101724.78;4989713;28;45751;-69
2021/08/18 09:48:01;;;;;;;;;6.00;4.50;;;;;22.26;63.50;101714.50;4990832;28;46033;-68
2021/08/18 09:50:37;;;;;;;;;4.75;4.75;;;;;22.43;63.06;101712.34;4990204;28;45620;-68
2021/08/18 09:53:14;;;;;;;;;5.00;5.00;;;;;22.63;62.43;101711.66;4991049;28;45644;-69
2021/08/18 09:55:48;;;;;;;;;5.25;4.00;;;;;22.86;62.43;101707.13;4987616;28;46831;-68
2021/08/18 09:58:18;;;;;;;;;5.00;4.00;;;;;23.05;61.62;101702.06;4993440;28;46140;-69
2021/08/18 10:00:45;;;;;;;;;6.75;5.50;;;;;23.07;61.42;101704.59;4990876;28;45549;-69
2021/08/18 10:03:12;;;;;;;;;5.00;4.50;;;;;23.05;61.61;101709.25;4991773;28;45552;-69
2021/08/18 10:05:37;;;;;;;;;4.00;4.00;;;;;23.08;61.03;101717.06;4989736;28;45997;-69
2021/08/18 10:08:03;;;;;;;;;4.00;3.75;;;;;23.17;61.09;101703.75;4990741;28;45532;-70
2021/08/18 10:10:29;;;;;;;;;4.25;4.00;;;;;23.38;60.53;101698.47;4991343;28;45515;-69
2021/08/18 10:12:54;;;;;;;;;4.00;4.00;;;;;23.61;60.80;101711.84;4993545;28;45725;-69
2021/08/18 10:15:20;;;;;;;;;3.75;3.00;;;;;23.67;60.55;101709.53;4991502;28;47068;-70
2021/08/18 10:17:45;;;;;;;;;3.00;3.00;;;;;23.61;60.01;101715.38;4990029;28;45902;-69
2021/08/18 10:20:15;;;;;;;;;3.00;3.00;;;;;23.49;59.67;101720.88;4991062;28;45687;-69
2021/08/18 10:22:40;;;;;;;;;3.25;3.00;;;;;23.33;60.41;101722.13;4994317;28;45444;-69
2021/08/18 10:25:30;;;;;;;;;3.75;3.00;;;;;23.22;60.60;101714.09;4994228;28;46419;-70
2021/08/18 10:27:56;;;;;;;;;6.25;3.50;;;;;23.12;60.78;101711.31;4993256;28;45368;-70
2021/08/18 10:30:23;;;;;;;;;4.50;3.25;;;;;23.04;60.74;101719.13;4991331;28;45716;-69
2021/08/18 10:32:49;;;;;;;;;6.00;4.00;;;;;22.96;61.24;101713.50;4991386;28;45896;-69
2021/08/18 10:35:33;;;;;;;;;2.75;2.00;;;;;22.89;61.86;101712.31;4990372;28;46537;-69
2021/08/18 10:38:26;;;;;;;;;2.75;2.75;;;;;22.88;61.63;101711.44;4989244;28;45682;-69
2021/08/18 10:40:51;;;;;;;;;2.75;2.75;;;;;22.89;61.68;101706.94;4991096;28;45467;-70
2021/08/18 10:43:51;;;;;;;;;2.00;2.00;;;;;22.97;62.24;101703.63;4991732;28;45900;-70
2021/08/18 10:46:17;;;;;;;;;2.00;2.00;;;;;22.99;62.31;101690.97;4990606;28;46368;-70
2021/08/18 10:48:54;;;;;;;;;2.00;2.00;;;;;23.29;62.00;101699.22;4992996;28;45576;-71
2021/08/18 10:51:38;;;;;;;;;3.00;2.00;;;;;23.64;60.88;101692.81;4989989;28;45738;-69
2021/08/18 10:54:28;;;;;;;;;3.25;3.00;;;;;24.01;60.51;101695.94;4989744;28;45490;-69
2021/08/18 10:57:02;;;;;;;;;3.00;1.00;;;;;24.29;60.08;101686.41;4985903;28;47152;-69
2021/08/18 10:59:49;;;;;;;;;1.00;1.00;;;;;24.76;58.26;101685.97;5564032;22;47634;-71
2021/08/18 11:02:53;;;;;;;;;1.00;1.00;;;;;25.39;58.01;101678.56;4986183;28;45548;-70
2021/08/18 11:05:21;;;;;;;;;1.75;1.75;;;;;26.19;56.49;101678.28;5000650;28;44770;-69
2021/08/18 11:08:07;;;;;;;;;1.00;1.00;;;;;26.59;56.28;101688.00;5000514;28;46499;-70
2021/08/18 11:10:37;;;;;;;;;3.00;1.75;;;;;26.72;55.30;101674.19;4993121;28;45443;-69
2021/08/18 11:13:05;;;;;;;;;1.25;1.25;;;;;26.90;54.21;101680.50;4992357;28;45518;-69
2021/08/18 11:15:31;;;;;;;;;1.00;1.00;;;;;27.22;53.69;101673.81;4985585;28;46032;-69
2021/08/18 11:17:56;;;;;;;;;0.00;0.00;;;;;27.54;52.86;101662.50;4992970;28;48116;-69
2021/08/18 11:20:29;;;;;;;;;2.75;1.25;;;;;27.75;51.90;101667.63;4993255;28;45482;-69
2021/08/18 11:22:59;;;;;;;;;3.75;2.00;;;;;27.68;52.34;101661.97;4992603;28;45495;-69
2021/08/18 11:25:26;;;;;;;;;2.50;2.50;;;;;27.59;51.74;101668.28;4996635;28;45497;-69